sensor_id;sensor_type;location;lat;lon;timestamp;temperature;humidity
21163;DHT22;10739;52.198;20.908;2023-02-03T00:01:48;0.60;99.90
21163;DHT22;10739;52.198;20.908;2023-02-03T00:04:14;0.60;99.90
21163;DHT22;10739;52.198;20.908;2023-02-03T00:06:41;0.60;99.90
21163;DHT22;10739;52.198;20.908;2023-02-03T00:09:08;0.50;99.90
21163;DHT22;10739;52.198;20.908;2023-02-03T00:11:34;0.60;99.90
21163;DHT22;10739;52.198;20.908;2023-02-03T00:14:01;0.50;99.90
21163;DHT22;10739;52.198;20.908;2023-02-03T00:16:27;0.40;99.90
21163;DHT22;10739;52.198;20.908;2023-02-03T00:18:54;0.40;99.90
21163;DHT22;10739;52.198;20.908;2023-02-03T00:21:20;0.40;99.90
21163;DHT22;10739;52.198;20.908;2023-02-03T00:23:46;0.30;99.90
21163;DHT22;10739;52.198;20.908;2023-02-03T00:26:15;0.30;99.90
21163;DHT22;10739;52.198;20.908;2023-02-03T00:28:42;0.30;99.90
21163;DHT22;10739;52.198;20.908;2023-02-03T00:31:20;0.30;99.90
21163;DHT22;10739;52.198;20.908;2023-02-03T00:33:54;0.30;99.90
21163;DHT22;10739;52.198;20.908;2023-02-03T00:36:21;0.20;99.90
21163;DHT22;10739;52.198;20.908;2023-02-03T00:38:48;0.10;99.90
21163;DHT22;10739;52.198;20.908;2023-02-03T00:41:15;0.10;99.90
21163;DHT22;10739;52.198;20.908;2023-02-03T00:43:43;1.00;99.90
21163;DHT22;10739;52.198;20.908;2023-02-03T00:46:09;0.00;99.90
21163;DHT22;10739;52.198;20.908;2023-02-03T00:48:36;-0.10;99.90
21163;DHT22;10739;52.198;20.908;2023-02-03T00:51:02;-0.10;99.90
21163;DHT22;10739;52.198;20.908;2023-02-03T00:53:29;-0.10;99.90
21163;DHT22;10739;52.198;20.908;2023-02-03T00:55:56;-0.20;99.90
21163;DHT22;10739;52.198;20.908;2023-02-03T00:58:22;-0.20;99.90
21163;DHT22;10739;52.198;20.908;2023-02-03T01:00:48;-0.20;99.90
21163;DHT22;10739;52.198;20.908;2023-02-03T01:03:15;-0.30;99.90
21163;DHT22;10739;52.198;20.908;2023-02-03T01:05:42;-0.20;99.90
21163;DHT22;10739;52.198;20.908;2023-02-03T01:08:08;-0.20;99.90
21163;DHT22;10739;52.198;20.908;2023-02-03T01:10:36;-0.20;99.90
21163;DHT22;10739;52.198;20.908;2023-02-03T01:13:04;-0.20;99.90
21163;DHT22;10739;52.198;20.908;2023-02-03T01:15:30;-0.20;99.90
21163;DHT22;10739;52.198;20.908;2023-02-03T01:17:56;-0.10;99.90
21163;DHT22;10739;52.198;20.908;2023-02-03T01:20:23;0.00;99.90
21163;DHT22;10739;52.198;20.908;2023-02-03T01:22:49;0.00;99.90
21163;DHT22;10739;52.198;20.908;2023-02-03T01:25:15;0.00;99.90
21163;DHT22;10739;52.198;20.908;2023-02-03T01:27:42;0.00;99.90
21163;DHT22;10739;52.198;20.908;2023-02-03T01:30:09;0.00;99.90
21163;DHT22;10739;52.198;20.908;2023-02-03T01:32:36;0.00;99.90
21163;DHT22;10739;52.198;20.908;2023-02-03T01:35:02;0.00;99.90
21163;DHT22;10739;52.198;20.908;2023-02-03T01:37:28;0.00;99.90
21163;DHT22;10739;52.198;20.908;2023-02-03T01:39:54;0.00;99.90
21163;DHT22;10739;52.198;20.908;2023-02-03T01:42:21;0.10;99.90
21163;DHT22;10739;52.198;20.908;2023-02-03T01:44:49;0.10;99.90
21163;DHT22;10739;52.198;20.908;2023-02-03T01:50:12;0.00;99.90
21163;DHT22;10739;52.198;20.908;2023-02-03T01:52:49;0.00;99.90
21163;DHT22;10739;52.198;20.908;2023-02-03T01:55:24;0.00;99.90
21163;DHT22;10739;52.198;20.908;2023-02-03T01:58:12;0.10;99.90
21163;DHT22;10739;52.198;20.908;2023-02-03T02:00:40;0.00;99.90
21163;DHT22;10739;52.198;20.908;2023-02-03T02:03:08;0.00;99.90
21163;DHT22;10739;52.198;20.908;2023-02-03T02:05:53;0.00;99.90
21163;DHT22;10739;52.198;20.908;2023-02-03T02:08:25;0.00;99.90
21163;DHT22;10739;52.198;20.908;2023-02-03T02:10:52;0.10;99.90
21163;DHT22;10739;52.198;20.908;2023-02-03T02:13:20;0.90;99.90
21163;DHT22;10739;52.198;20.908;2023-02-03T02:16:09;0.10;99.90
21163;DHT22;10739;52.198;20.908;2023-02-03T02:21:55;0.00;99.90
21163;DHT22;10739;52.198;20.908;2023-02-03T02:31:46;0.00;99.90
21163;DHT22;10739;52.198;20.908;2023-02-03T02:34:37;-0.10;99.90
21163;DHT22;10739;52.198;20.908;2023-02-03T02:40:35;-0.20;99.90
21163;DHT22;10739;52.198;20.908;2023-02-03T02:43:33;-0.20;99.90
21163;DHT22;10739;52.198;20.908;2023-02-03T02:46:13;-0.30;99.90
21163;DHT22;10739;52.198;20.908;2023-02-03T02:48:57;-0.40;99.90
21163;DHT22;10739;52.198;20.908;2023-02-03T02:51:27;-0.50;99.90
21163;DHT22;10739;52.198;20.908;2023-02-03T02:53:58;-0.50;99.90
21163;DHT22;10739;52.198;20.908;2023-02-03T02:56:29;-0.60;99.90
21163;DHT22;10739;52.198;20.908;2023-02-03T02:59:01;-0.60;99.90
21163;DHT22;10739;52.198;20.908;2023-02-03T03:01:32;-0.70;99.90
21163;DHT22;10739;52.198;20.908;2023-02-03T03:04:02;-0.70;99.90
21163;DHT22;10739;52.198;20.908;2023-02-03T03:06:43;-0.80;99.90
21163;DHT22;10739;52.198;20.908;2023-02-03T03:09:23;-0.80;99.90
21163;DHT22;10739;52.198;20.908;2023-02-03T03:11:57;-0.80;99.90
21163;DHT22;10739;52.198;20.908;2023-02-03T03:14:29;-0.80;99.90
21163;DHT22;10739;52.198;20.908;2023-02-03T03:17:03;-0.90;99.90
21163;DHT22;10739;52.198;20.908;2023-02-03T03:19:36;-0.90;99.90
21163;DHT22;10739;52.198;20.908;2023-02-03T03:22:08;-0.90;99.90
21163;DHT22;10739;52.198;20.908;2023-02-03T03:24:47;-1.00;99.90
21163;DHT22;10739;52.198;20.908;2023-02-03T03:27:29;-1.00;99.90
21163;DHT22;10739;52.198;20.908;2023-02-03T03:30:06;-1.00;99.90
21163;DHT22;10739;52.198;20.908;2023-02-03T03:32:37;-1.00;99.90
21163;DHT22;10739;52.198;20.908;2023-02-03T03:35:04;-1.00;99.90
21163;DHT22;10739;52.198;20.908;2023-02-03T03:37:37;-1.10;99.90
21163;DHT22;10739;52.198;20.908;2023-02-03T03:40:27;-1.10;99.90
21163;DHT22;10739;52.198;20.908;2023-02-03T03:43:02;-1.10;99.90
21163;DHT22;10739;52.198;20.908;2023-02-03T03:45:57;-1.10;99.90
21163;DHT22;10739;52.198;20.908;2023-02-03T03:48:37;-1.20;99.90
21163;DHT22;10739;52.198;20.908;2023-02-03T03:51:29;-1.20;99.90
21163;DHT22;10739;52.198;20.908;2023-02-03T03:54:04;-1.20;99.90
21163;DHT22;10739;52.198;20.908;2023-02-03T03:56:41;-1.20;99.90
21163;DHT22;10739;52.198;20.908;2023-02-03T03:59:36;-1.20;99.90
21163;DHT22;10739;52.198;20.908;2023-02-03T04:02:05;-1.30;99.90
21163;DHT22;10739;52.198;20.908;2023-02-03T04:04:34;-1.30;99.90
21163;DHT22;10739;52.198;20.908;2023-02-03T04:07:03;-1.30;99.90
21163;DHT22;10739;52.198;20.908;2023-02-03T04:09:30;-1.40;99.90
21163;DHT22;10739;52.198;20.908;2023-02-03T04:11:57;-1.40;99.90
21163;DHT22;10739;52.198;20.908;2023-02-03T04:14:28;-1.40;99.90
21163;DHT22;10739;52.198;20.908;2023-02-03T04:16:56;-1.40;99.90
21163;DHT22;10739;52.198;20.908;2023-02-03T04:19:23;-1.40;99.90
21163;DHT22;10739;52.198;20.908;2023-02-03T04:21:49;-1.40;99.90
21163;DHT22;10739;52.198;20.908;2023-02-03T04:24:16;-1.50;99.90
21163;DHT22;10739;52.198;20.908;2023-02-03T04:26:42;-1.50;99.90
21163;DHT22;10739;52.198;20.908;2023-02-03T04:29:09;-1.50;99.90
21163;DHT22;10739;52.198;20.908;2023-02-03T04:31:35;-1.60;99.90
21163;DHT22;10739;52.198;20.908;2023-02-03T04:34:04;-1.60;99.90
21163;DHT22;10739;52.198;20.908;2023-02-03T04:36:31;-1.50;99.90
21163;DHT22;10739;52.198;20.908;2023-02-03T04:38:57;-1.50;99.90
21163;DHT22;10739;52.198;20.908;2023-02-03T04:41:23;-1.60;99.90
21163;DHT22;10739;52.198;20.908;2023-02-03T04:43:50;-1.60;99.90
21163;DHT22;10739;52.198;20.908;2023-02-03T04:46:16;-1.60;99.90
21163;DHT22;10739;52.198;20.908;2023-02-03T04:48:43;-1.60;99.90
21163;DHT22;10739;52.198;20.908;2023-02-03T04:51:10;-1.60;99.90
21163;DHT22;10739;52.198;20.908;2023-02-03T04:53:36;-1.60;99.90
21163;DHT22;10739;52.198;20.908;2023-02-03T04:56:03;-1.60;99.90
21163;DHT22;10739;52.198;20.908;2023-02-03T04:58:29;-1.60;99.90
21163;DHT22;10739;52.198;20.908;2023-02-03T05:00:56;-1.60;99.90
21163;DHT22;10739;52.198;20.908;2023-02-03T05:03:22;-1.60;99.90
21163;DHT22;10739;52.198;20.908;2023-02-03T05:05:49;-1.60;99.90
21163;DHT22;10739;52.198;20.908;2023-02-03T05:08:16;-1.60;99.90
21163;DHT22;10739;52.198;20.908;2023-02-03T05:10:42;-1.70;99.90
21163;DHT22;10739;52.198;20.908;2023-02-03T05:13:08;-1.70;99.90
21163;DHT22;10739;52.198;20.908;2023-02-03T05:15:35;-1.70;99.90
21163;DHT22;10739;52.198;20.908;2023-02-03T05:18:01;-1.70;99.90
21163;DHT22;10739;52.198;20.908;2023-02-03T05:20:27;-1.60;99.90
21163;DHT22;10739;52.198;20.908;2023-02-03T05:22:54;-1.60;99.90
21163;DHT22;10739;52.198;20.908;2023-02-03T05:25:20;-1.70;99.90
21163;DHT22;10739;52.198;20.908;2023-02-03T05:27:46;-1.70;99.90
21163;DHT22;10739;52.198;20.908;2023-02-03T05:30:13;-1.60;99.90
21163;DHT22;10739;52.198;20.908;2023-02-03T05:32:39;-1.60;99.90
21163;DHT22;10739;52.198;20.908;2023-02-03T05:35:06;-1.60;99.90
21163;DHT22;10739;52.198;20.908;2023-02-03T05:37:32;-1.60;99.90
21163;DHT22;10739;52.198;20.908;2023-02-03T05:39:59;-1.60;99.90
21163;DHT22;10739;52.198;20.908;2023-02-03T05:42:48;-1.60;99.90
21163;DHT22;10739;52.198;20.908;2023-02-03T05:45:15;-1.60;99.90
21163;DHT22;10739;52.198;20.908;2023-02-03T05:47:42;-1.30;99.90
21163;DHT22;10739;52.198;20.908;2023-02-03T05:50:09;-1.60;99.90
21163;DHT22;10739;52.198;20.908;2023-02-03T05:52:36;-1.60;99.90
21163;DHT22;10739;52.198;20.908;2023-02-03T05:55:02;-1.60;99.90
21163;DHT22;10739;52.198;20.908;2023-02-03T05:57:29;-1.60;99.90
21163;DHT22;10739;52.198;20.908;2023-02-03T05:59:55;-1.60;99.90
21163;DHT22;10739;52.198;20.908;2023-02-03T06:02:22;-1.60;99.90
21163;DHT22;10739;52.198;20.908;2023-02-03T06:04:48;-1.60;99.90
21163;DHT22;10739;52.198;20.908;2023-02-03T06:07:14;-1.50;99.90
21163;DHT22;10739;52.198;20.908;2023-02-03T06:09:40;-1.60;99.90
21163;DHT22;10739;52.198;20.908;2023-02-03T06:12:07;-1.60;99.90
21163;DHT22;10739;52.198;20.908;2023-02-03T06:14:33;-1.60;99.90
21163;DHT22;10739;52.198;20.908;2023-02-03T06:16:59;-1.60;99.90
21163;DHT22;10739;52.198;20.908;2023-02-03T06:19:26;-1.60;99.90
21163;DHT22;10739;52.198;20.908;2023-02-03T06:21:52;-1.60;99.90
21163;DHT22;10739;52.198;20.908;2023-02-03T06:24:19;-1.60;99.90
21163;DHT22;10739;52.198;20.908;2023-02-03T06:26:45;-1.60;99.90
21163;DHT22;10739;52.198;20.908;2023-02-03T06:29:11;-1.60;99.90
21163;DHT22;10739;52.198;20.908;2023-02-03T06:31:37;-1.60;99.90
21163;DHT22;10739;52.198;20.908;2023-02-03T06:34:04;-1.50;99.90
21163;DHT22;10739;52.198;20.908;2023-02-03T06:36:30;-1.60;99.90
21163;DHT22;10739;52.198;20.908;2023-02-03T06:38:56;-1.50;99.90
21163;DHT22;10739;52.198;20.908;2023-02-03T06:41:24;-1.50;99.90
21163;DHT22;10739;52.198;20.908;2023-02-03T06:43:55;-1.50;99.90
21163;DHT22;10739;52.198;20.908;2023-02-03T06:46:21;-1.50;99.90
21163;DHT22;10739;52.198;20.908;2023-02-03T06:48:48;-1.60;99.90
21163;DHT22;10739;52.198;20.908;2023-02-03T06:51:14;-1.50;99.90
21163;DHT22;10739;52.198;20.908;2023-02-03T06:53:41;-1.50;99.90
21163;DHT22;10739;52.198;20.908;2023-02-03T06:56:07;-1.50;99.90
21163;DHT22;10739;52.198;20.908;2023-02-03T06:58:33;-1.40;99.90
21163;DHT22;10739;52.198;20.908;2023-02-03T07:00:59;-1.40;99.90
21163;DHT22;10739;52.198;20.908;2023-02-03T07:03:26;-1.40;99.90
21163;DHT22;10739;52.198;20.908;2023-02-03T07:05:52;-1.40;99.90
21163;DHT22;10739;52.198;20.908;2023-02-03T07:08:18;-1.40;99.90
21163;DHT22;10739;52.198;20.908;2023-02-03T07:10:44;-1.40;99.90
21163;DHT22;10739;52.198;20.908;2023-02-03T07:13:11;-1.40;99.90
21163;DHT22;10739;52.198;20.908;2023-02-03T07:15:37;-1.40;99.90
21163;DHT22;10739;52.198;20.908;2023-02-03T07:18:03;-1.40;99.90
21163;DHT22;10739;52.198;20.908;2023-02-03T07:20:30;-1.30;99.90
21163;DHT22;10739;52.198;20.908;2023-02-03T07:22:57;-1.30;99.90
21163;DHT22;10739;52.198;20.908;2023-02-03T07:25:24;-1.30;99.90
21163;DHT22;10739;52.198;20.908;2023-02-03T07:27:51;-1.20;99.90
21163;DHT22;10739;52.198;20.908;2023-02-03T07:30:18;-1.20;99.90
21163;DHT22;10739;52.198;20.908;2023-02-03T07:32:49;-1.10;99.90
21163;DHT22;10739;52.198;20.908;2023-02-03T07:35:17;-1.10;99.90
21163;DHT22;10739;52.198;20.908;2023-02-03T07:37:45;-1.10;99.90
21163;DHT22;10739;52.198;20.908;2023-02-03T07:40:13;-1.10;99.90
21163;DHT22;10739;52.198;20.908;2023-02-03T07:42:42;-1.00;99.90
21163;DHT22;10739;52.198;20.908;2023-02-03T07:45:15;-0.90;99.90
21163;DHT22;10739;52.198;20.908;2023-02-03T07:47:43;-0.90;99.90
21163;DHT22;10739;52.198;20.908;2023-02-03T07:50:10;-0.80;99.90
21163;DHT22;10739;52.198;20.908;2023-02-03T07:52:38;-0.80;99.90
21163;DHT22;10739;52.198;20.908;2023-02-03T07:55:05;-0.70;99.90
21163;DHT22;10739;52.198;20.908;2023-02-03T07:57:32;-0.70;99.90
21163;DHT22;10739;52.198;20.908;2023-02-03T07:59:58;-0.60;99.90
21163;DHT22;10739;52.198;20.908;2023-02-03T08:02:24;-0.50;99.90
21163;DHT22;10739;52.198;20.908;2023-02-03T08:04:51;-0.40;99.90
21163;DHT22;10739;52.198;20.908;2023-02-03T08:07:17;-0.40;99.90
21163;DHT22;10739;52.198;20.908;2023-02-03T08:09:43;-0.40;99.90
21163;DHT22;10739;52.198;20.908;2023-02-03T08:12:10;-0.30;99.90
21163;DHT22;10739;52.198;20.908;2023-02-03T08:14:36;-0.30;99.90
21163;DHT22;10739;52.198;20.908;2023-02-03T08:17:02;-0.30;99.90
21163;DHT22;10739;52.198;20.908;2023-02-03T08:19:29;-0.30;99.90
21163;DHT22;10739;52.198;20.908;2023-02-03T08:21:55;-0.20;99.90
21163;DHT22;10739;52.198;20.908;2023-02-03T08:24:21;-0.20;99.90
21163;DHT22;10739;52.198;20.908;2023-02-03T08:26:47;0.00;99.90
21163;DHT22;10739;52.198;20.908;2023-02-03T08:29:14;0.00;99.90
21163;DHT22;10739;52.198;20.908;2023-02-03T08:31:41;0.10;99.90
21163;DHT22;10739;52.198;20.908;2023-02-03T08:34:07;0.10;99.90
21163;DHT22;10739;52.198;20.908;2023-02-03T08:36:34;0.10;99.90
21163;DHT22;10739;52.198;20.908;2023-02-03T08:39:04;0.10;99.90
21163;DHT22;10739;52.198;20.908;2023-02-03T08:41:31;0.20;99.90
21163;DHT22;10739;52.198;20.908;2023-02-03T08:43:59;0.30;99.90
21163;DHT22;10739;52.198;20.908;2023-02-03T08:46:26;0.50;99.90
21163;DHT22;10739;52.198;20.908;2023-02-03T08:48:53;0.50;99.90
21163;DHT22;10739;52.198;20.908;2023-02-03T08:51:21;0.60;99.90
21163;DHT22;10739;52.198;20.908;2023-02-03T08:53:49;0.60;99.90
21163;DHT22;10739;52.198;20.908;2023-02-03T08:56:15;0.60;99.90
21163;DHT22;10739;52.198;20.908;2023-02-03T08:58:41;0.60;99.90
21163;DHT22;10739;52.198;20.908;2023-02-03T09:01:14;0.70;99.90
21163;DHT22;10739;52.198;20.908;2023-02-03T09:03:41;0.60;99.90
21163;DHT22;10739;52.198;20.908;2023-02-03T09:06:09;0.70;99.90
21163;DHT22;10739;52.198;20.908;2023-02-03T09:08:38;0.70;99.90
21163;DHT22;10739;52.198;20.908;2023-02-03T09:11:11;0.90;99.90
21163;DHT22;10739;52.198;20.908;2023-02-03T09:13:39;1.20;99.90
21163;DHT22;10739;52.198;20.908;2023-02-03T09:16:15;1.60;99.90
21163;DHT22;10739;52.198;20.908;2023-02-03T09:18:46;1.80;99.90
21163;DHT22;10739;52.198;20.908;2023-02-03T09:21:13;1.80;99.90
21163;DHT22;10739;52.198;20.908;2023-02-03T09:23:42;1.60;99.90
21163;DHT22;10739;52.198;20.908;2023-02-03T09:26:12;1.50;99.90
21163;DHT22;10739;52.198;20.908;2023-02-03T09:28:40;1.40;99.90
21163;DHT22;10739;52.198;20.908;2023-02-03T09:31:09;1.30;99.90
21163;DHT22;10739;52.198;20.908;2023-02-03T09:33:38;1.30;99.90
21163;DHT22;10739;52.198;20.908;2023-02-03T09:36:06;1.30;99.90
21163;DHT22;10739;52.198;20.908;2023-02-03T09:38:33;1.20;99.90
21163;DHT22;10739;52.198;20.908;2023-02-03T09:44:04;1.30;99.90
21163;DHT22;10739;52.198;20.908;2023-02-03T09:46:52;1.30;99.90
21163;DHT22;10739;52.198;20.908;2023-02-03T09:49:24;1.40;99.90
21163;DHT22;10739;52.198;20.908;2023-02-03T09:52:19;1.40;99.90
21163;DHT22;10739;52.198;20.908;2023-02-03T09:57:36;1.10;99.90
21163;DHT22;10739;52.198;20.908;2023-02-03T10:00:23;1.10;99.90
21163;DHT22;10739;52.198;20.908;2023-02-03T10:06:05;1.10;99.90
21163;DHT22;10739;52.198;20.908;2023-02-03T10:08:45;1.20;99.90
21163;DHT22;10739;52.198;20.908;2023-02-03T10:15:01;1.30;99.90
21163;DHT22;10739;52.198;20.908;2023-02-03T10:17:40;1.20;99.90
21163;DHT22;10739;52.198;20.908;2023-02-03T10:23:10;1.30;99.90
21163;DHT22;10739;52.198;20.908;2023-02-03T10:25:42;1.50;99.90
21163;DHT22;10739;52.198;20.908;2023-02-03T10:28:19;1.40;99.90
21163;DHT22;10739;52.198;20.908;2023-02-03T10:30:57;1.40;99.90
21163;DHT22;10739;52.198;20.908;2023-02-03T10:33:30;1.30;99.90
21163;DHT22;10739;52.198;20.908;2023-02-03T10:36:22;1.30;99.90
21163;DHT22;10739;52.198;20.908;2023-02-03T10:39:28;1.20;99.90
21163;DHT22;10739;52.198;20.908;2023-02-03T10:42:06;1.20;99.90
21163;DHT22;10739;52.198;20.908;2023-02-03T10:47:36;1.40;99.90
21163;DHT22;10739;52.198;20.908;2023-02-03T10:50:22;1.50;99.90
21163;DHT22;10739;52.198;20.908;2023-02-03T10:53:19;1.30;99.90
21163;DHT22;10739;52.198;20.908;2023-02-03T10:56:03;1.40;99.90
21163;DHT22;10739;52.198;20.908;2023-02-03T10:58:33;1.50;99.90
21163;DHT22;10739;52.198;20.908;2023-02-03T11:03:37;1.20;99.90
21163;DHT22;10739;52.198;20.908;2023-02-03T11:06:16;1.30;99.90
21163;DHT22;10739;52.198;20.908;2023-02-03T11:08:48;1.30;99.90
21163;DHT22;10739;52.198;20.908;2023-02-03T11:11:23;1.30;99.90
21163;DHT22;10739;52.198;20.908;2023-02-03T11:14:10;1.30;99.90
21163;DHT22;10739;52.198;20.908;2023-02-03T11:16:40;1.20;99.90
21163;DHT22;10739;52.198;20.908;2023-02-03T11:19:19;1.10;99.90
21163;DHT22;10739;52.198;20.908;2023-02-03T11:21:50;1.10;99.90
21163;DHT22;10739;52.198;20.908;2023-02-03T11:24:27;1.10;99.90
21163;DHT22;10739;52.198;20.908;2023-02-03T11:27:22;1.10;99.90
21163;DHT22;10739;52.198;20.908;2023-02-03T11:29:54;1.10;99.90
21163;DHT22;10739;52.198;20.908;2023-02-03T11:32:38;1.10;99.90
21163;DHT22;10739;52.198;20.908;2023-02-03T11:35:21;1.10;99.90
21163;DHT22;10739;52.198;20.908;2023-02-03T11:37:52;1.10;99.90
21163;DHT22;10739;52.198;20.908;2023-02-03T11:40:28;1.10;99.90
21163;DHT22;10739;52.198;20.908;2023-02-03T11:45:41;1.10;99.90
21163;DHT22;10739;52.198;20.908;2023-02-03T11:54:21;1.20;99.90
21163;DHT22;10739;52.198;20.908;2023-02-03T12:00:18;1.20;99.90
21163;DHT22;10739;52.198;20.908;2023-02-03T12:06:21;1.20;99.90
21163;DHT22;10739;52.198;20.908;2023-02-03T12:09:43;1.30;99.90
21163;DHT22;10739;52.198;20.908;2023-02-03T12:24:18;1.20;99.90
21163;DHT22;10739;52.198;20.908;2023-02-03T12:26:49;1.20;99.90
21163;DHT22;10739;52.198;20.908;2023-02-03T12:29:39;1.20;99.90
21163;DHT22;10739;52.198;20.908;2023-02-03T12:32:33;1.10;99.90
21163;DHT22;10739;52.198;20.908;2023-02-03T12:35:24;1.10;99.90
21163;DHT22;10739;52.198;20.908;2023-02-03T12:40:51;1.10;99.90
21163;DHT22;10739;52.198;20.908;2023-02-03T12:43:38;1.10;99.90
21163;DHT22;10739;52.198;20.908;2023-02-03T12:51:57;1.20;99.90
21163;DHT22;10739;52.198;20.908;2023-02-03T12:57:40;1.10;99.90
21163;DHT22;10739;52.198;20.908;2023-02-03T13:18:27;0.50;99.90
21163;DHT22;10739;52.198;20.908;2023-02-03T13:20:57;0.50;99.90
21163;DHT22;10739;52.198;20.908;2023-02-03T13:23:24;0.40;99.90
21163;DHT22;10739;52.198;20.908;2023-02-03T13:32:10;0.10;99.90
21163;DHT22;10739;52.198;20.908;2023-02-03T13:41:04;-0.20;99.90
21163;DHT22;10739;52.198;20.908;2023-02-03T13:43:56;-0.30;99.90
21163;DHT22;10739;52.198;20.908;2023-02-03T13:46:27;-0.30;99.90
21163;DHT22;10739;52.198;20.908;2023-02-03T13:49:01;-0.30;99.90
21163;DHT22;10739;52.198;20.908;2023-02-03T13:51:32;-0.50;99.90
21163;DHT22;10739;52.198;20.908;2023-02-03T13:54:26;-0.50;99.90
21163;DHT22;10739;52.198;20.908;2023-02-03T13:57:02;-0.40;99.90
21163;DHT22;10739;52.198;20.908;2023-02-03T13:59:39;-0.40;99.90
21163;DHT22;10739;52.198;20.908;2023-02-03T14:04:55;-0.50;99.90
21163;DHT22;10739;52.198;20.908;2023-02-03T14:18:32;-0.60;99.90
21163;DHT22;10739;52.198;20.908;2023-02-03T14:21:12;-0.60;99.90
21163;DHT22;10739;52.198;20.908;2023-02-03T14:23:44;-0.70;99.90
21163;DHT22;10739;52.198;20.908;2023-02-03T14:26:20;-0.70;99.90
21163;DHT22;10739;52.198;20.908;2023-02-03T14:28:50;-0.70;99.90
21163;DHT22;10739;52.198;20.908;2023-02-03T14:31:23;-0.70;99.90
21163;DHT22;10739;52.198;20.908;2023-02-03T14:34:00;-0.70;99.90
21163;DHT22;10739;52.198;20.908;2023-02-03T14:36:52;-0.70;99.90
21163;DHT22;10739;52.198;20.908;2023-02-03T14:42:23;-0.70;99.90
21163;DHT22;10739;52.198;20.908;2023-02-03T14:45:15;-0.70;99.90
21163;DHT22;10739;52.198;20.908;2023-02-03T14:48:12;-0.70;99.90
21163;DHT22;10739;52.198;20.908;2023-02-03T14:54:20;-0.70;99.90
21163;DHT22;10739;52.198;20.908;2023-02-03T14:57:47;-0.70;99.90
21163;DHT22;10739;52.198;20.908;2023-02-03T15:11:30;-0.70;99.90
21163;DHT22;10739;52.198;20.908;2023-02-03T15:14:20;-0.70;99.90
21163;DHT22;10739;52.198;20.908;2023-02-03T15:19:32;-0.70;99.90
21163;DHT22;10739;52.198;20.908;2023-02-03T15:22:00;-0.70;99.90
21163;DHT22;10739;52.198;20.908;2023-02-03T15:24:34;-0.70;99.90
21163;DHT22;10739;52.198;20.908;2023-02-03T15:27:02;-0.70;99.90
21163;DHT22;10739;52.198;20.908;2023-02-03T15:29:31;-0.80;99.90
21163;DHT22;10739;52.198;20.908;2023-02-03T15:32:08;-0.80;99.90
21163;DHT22;10739;52.198;20.908;2023-02-03T15:34:49;-0.80;99.90
21163;DHT22;10739;52.198;20.908;2023-02-03T15:37:29;-0.80;99.90
21163;DHT22;10739;52.198;20.908;2023-02-03T15:40:20;-0.80;99.90
21163;DHT22;10739;52.198;20.908;2023-02-03T15:45:35;-0.80;99.90
21163;DHT22;10739;52.198;20.908;2023-02-03T15:48:43;-0.70;99.90
21163;DHT22;10739;52.198;20.908;2023-02-03T15:51:42;-0.70;99.90
21163;DHT22;10739;52.198;20.908;2023-02-03T15:54:45;-0.70;99.90
21163;DHT22;10739;52.198;20.908;2023-02-03T15:59:58;-0.70;99.90
21163;DHT22;10739;52.198;20.908;2023-02-03T16:02:42;-0.70;99.90
21163;DHT22;10739;52.198;20.908;2023-02-03T16:05:20;-0.70;99.90
21163;DHT22;10739;52.198;20.908;2023-02-03T16:07:48;-0.70;99.90
21163;DHT22;10739;52.198;20.908;2023-02-03T16:10:32;-0.70;99.90
21163;DHT22;10739;52.198;20.908;2023-02-03T16:13:22;-0.70;99.90
21163;DHT22;10739;52.198;20.908;2023-02-03T16:16:21;-0.70;99.90
21163;DHT22;10739;52.198;20.908;2023-02-03T16:18:56;-0.70;99.90
21163;DHT22;10739;52.198;20.908;2023-02-03T16:21:42;-0.70;99.90
21163;DHT22;10739;52.198;20.908;2023-02-03T16:29:47;-0.70;99.90
21163;DHT22;10739;52.198;20.908;2023-02-03T16:32:32;-0.70;99.90
21163;DHT22;10739;52.198;20.908;2023-02-03T16:35:17;-0.60;99.90
21163;DHT22;10739;52.198;20.908;2023-02-03T16:38:15;-0.70;99.90
21163;DHT22;10739;52.198;20.908;2023-02-03T16:41:03;-0.60;99.90
21163;DHT22;10739;52.198;20.908;2023-02-03T16:44:00;-0.70;99.90
21163;DHT22;10739;52.198;20.908;2023-02-03T16:46:46;-0.60;99.90
21163;DHT22;10739;52.198;20.908;2023-02-03T16:49:31;-0.70;99.90
21163;DHT22;10739;52.198;20.908;2023-02-03T16:52:16;-0.70;99.90
21163;DHT22;10739;52.198;20.908;2023-02-03T16:54:42;-0.60;99.90
21163;DHT22;10739;52.198;20.908;2023-02-03T16:57:08;-0.60;99.90
21163;DHT22;10739;52.198;20.908;2023-02-03T16:59:35;-0.60;99.90
21163;DHT22;10739;52.198;20.908;2023-02-03T17:02:01;-0.60;99.90
21163;DHT22;10739;52.198;20.908;2023-02-03T17:04:28;-0.60;99.90
21163;DHT22;10739;52.198;20.908;2023-02-03T17:06:54;-0.60;99.90
21163;DHT22;10739;52.198;20.908;2023-02-03T17:09:20;-0.60;99.90
21163;DHT22;10739;52.198;20.908;2023-02-03T17:11:49;-0.60;99.90
21163;DHT22;10739;52.198;20.908;2023-02-03T17:14:16;-0.60;99.90
21163;DHT22;10739;52.198;20.908;2023-02-03T17:16:42;-0.60;99.90
21163;DHT22;10739;52.198;20.908;2023-02-03T17:19:10;-0.60;99.90
21163;DHT22;10739;52.198;20.908;2023-02-03T17:21:36;-0.60;99.90
21163;DHT22;10739;52.198;20.908;2023-02-03T17:24:04;-0.50;99.90
21163;DHT22;10739;52.198;20.908;2023-02-03T17:26:31;-0.60;99.90
21163;DHT22;10739;52.198;20.908;2023-02-03T17:28:59;-0.60;99.90
21163;DHT22;10739;52.198;20.908;2023-02-03T17:31:28;-0.60;99.90
21163;DHT22;10739;52.198;20.908;2023-02-03T17:33:56;-0.60;99.90
21163;DHT22;10739;52.198;20.908;2023-02-03T17:36:23;-0.60;99.90
21163;DHT22;10739;52.198;20.908;2023-02-03T17:38:55;-0.50;99.90
21163;DHT22;10739;52.198;20.908;2023-02-03T17:41:25;-0.50;99.90
21163;DHT22;10739;52.198;20.908;2023-02-03T17:43:54;-0.50;99.90
21163;DHT22;10739;52.198;20.908;2023-02-03T17:46:23;-0.50;99.90
21163;DHT22;10739;52.198;20.908;2023-02-03T17:48:50;-0.50;99.90
21163;DHT22;10739;52.198;20.908;2023-02-03T17:51:20;-0.50;99.90
21163;DHT22;10739;52.198;20.908;2023-02-03T17:53:49;-0.50;99.90
21163;DHT22;10739;52.198;20.908;2023-02-03T17:56:21;-0.50;99.90
21163;DHT22;10739;52.198;20.908;2023-02-03T17:58:54;-0.50;99.90
21163;DHT22;10739;52.198;20.908;2023-02-03T18:01:24;-0.50;99.90
21163;DHT22;10739;52.198;20.908;2023-02-03T18:03:56;-0.50;99.90
21163;DHT22;10739;52.198;20.908;2023-02-03T18:06:25;-0.50;99.90
21163;DHT22;10739;52.198;20.908;2023-02-03T18:08:53;-0.50;99.90
21163;DHT22;10739;52.198;20.908;2023-02-03T18:11:20;-0.50;99.90
21163;DHT22;10739;52.198;20.908;2023-02-03T18:13:47;-0.50;99.90
21163;DHT22;10739;52.198;20.908;2023-02-03T18:16:16;-0.50;99.90
21163;DHT22;10739;52.198;20.908;2023-02-03T18:18:51;-0.50;99.90
21163;DHT22;10739;52.198;20.908;2023-02-03T18:21:19;-0.40;99.90
21163;DHT22;10739;52.198;20.908;2023-02-03T18:23:48;-0.40;99.90
21163;DHT22;10739;52.198;20.908;2023-02-03T18:26:17;-0.40;99.90